Time;durP1;ratioP1;P1;durP2;ratioP2;P2;SDS_P1;SDS_P2;PMS_P1;PMS_P2;Temp;Humidity;BMP_temperature;BMP_pressure;BME280_temperature;BME280_humidity;BME280_pressure;Samples;Min_cycle;Max_cycle;Signal;HPM_P1;HPM_P2
2021/12/01 00:01:13;;;;;;;1.10;0.80;;;4.20;99.90;;;;;;5021011;28;20214;-83
2021/12/01 00:03:41;;;;;;;1.50;1.40;;;4.10;99.90;;;;;;5022151;28;20206;-85
2021/12/01 00:06:08;;;;;;;1.52;1.42;;;4.10;99.90;;;;;;5021373;28;20245;-85
2021/12/01 00:08:35;;;;;;;1.80;1.70;;;4.10;99.90;;;;;;5021084;28;20227;-84
2021/12/01 00:11:02;;;;;;;1.60;1.50;;;4.10;99.90;;;;;;5021467;28;20561;-85
2021/12/01 00:13:32;;;;;;;1.35;1.35;;;3.90;99.90;;;;;;5032648;28;20232;-85
2021/12/01 00:15:59;;;;;;;1.23;1.23;;;4.00;99.90;;;;;;5041024;28;20206;-84
2021/12/01 00:18:26;;;;;;;1.55;1.40;;;3.90;99.90;;;;;;5028529;28;20223;-85
2021/12/01 00:20:53;;;;;;;1.90;1.80;;;3.90;99.90;;;;;;5021875;28;20673;-83
2021/12/01 00:23:20;;;;;;;1.00;1.00;;;4.00;99.90;;;;;;5023503;28;20212;-84
2021/12/01 00:25:46;;;;;;;1.20;1.20;;;4.00;99.90;;;;;;5022084;28;20208;-85
2021/12/01 00:28:13;;;;;;;1.40;1.30;;;4.00;99.90;;;;;;5030743;28;20633;-82
2021/12/01 00:30:42;;;;;;;1.27;1.17;;;3.90;99.90;;;;;;5039080;28;20225;-84
2021/12/01 00:33:13;;;;;;;1.50;1.50;;;3.90;99.90;;;;;;5028887;28;20219;-85
2021/12/01 00:35:40;;;;;;;1.05;1.00;;;3.90;99.90;;;;;;5020638;28;20210;-83
2021/12/01 00:38:07;;;;;;;0.90;0.90;;;3.90;99.90;;;;;;5030058;28;20235;-84
2021/12/01 00:40:34;;;;;;;3.90;1.20;;;3.90;99.90;;;;;;5040037;28;20588;-83
2021/12/01 00:43:00;;;;;;;1.10;0.98;;;3.80;99.90;;;;;;5031395;28;20199;-84
2021/12/01 00:45:29;;;;;;;1.15;1.00;;;3.80;99.90;;;;;;5020355;28;20217;-85
2021/12/01 00:47:57;;;;;;;0.85;0.85;;;3.80;99.90;;;;;;5028358;28;20234;-84
2021/12/01 00:50:27;;;;;;;0.88;0.88;;;3.90;99.90;;;;;;5038905;28;20210;-83
2021/12/01 00:52:56;;;;;;;2.03;1.30;;;3.90;99.90;;;;;;5031557;28;20210;-83
2021/12/01 00:55:24;;;;;;;1.50;1.40;;;3.90;99.90;;;;;;5020153;28;20207;-85
2021/12/01 00:57:51;;;;;;;1.00;1.00;;;3.90;99.90;;;;;;5027051;28;20229;-84
2021/12/01 01:00:19;;;;;;;1.40;1.30;;;3.90;99.90;;;;;;5039444;28;20601;-83
2021/12/01 01:02:46;;;;;;;0.95;0.95;;;3.90;99.90;;;;;;5034028;28;20575;-83
2021/12/01 01:05:15;;;;;;;1.00;1.00;;;4.00;99.90;;;;;;5019501;28;20218;-83
2021/12/01 01:07:41;;;;;;;2.13;1.60;;;4.00;99.90;;;;;;5026695;28;20233;-84
2021/12/01 01:10:29;;;;;;;1.35;1.25;;;4.00;99.90;;;;;;5040338;28;20205;-82
2021/12/01 01:18:28;;;;;;;1.10;1.10;;;4.00;99.90;;;;;;5029612;28;20592;-83
2021/12/01 01:20:56;;;;;;;1.58;1.48;;;4.00;99.90;;;;;;5020620;28;20209;-83
2021/12/01 01:23:24;;;;;;;1.63;1.52;;;4.10;99.90;;;;;;5022272;28;20199;-84
2021/12/01 01:25:51;;;;;;;1.52;1.50;;;4.00;99.90;;;;;;5023426;28;20198;-83
2021/12/01 01:28:17;;;;;;;1.52;1.42;;;4.00;99.90;;;;;;5028686;28;20231;-84
2021/12/01 01:30:44;;;;;;;1.40;1.30;;;4.10;99.90;;;;;;5021884;28;20215;-84
2021/12/01 01:33:11;;;;;;;1.60;1.50;;;4.10;99.90;;;;;;5040131;28;20228;-84
2021/12/01 01:35:38;;;;;;;1.95;1.85;;;4.10;99.90;;;;;;5040085;28;20702;-83
2021/12/01 01:38:06;;;;;;;1.65;1.55;;;4.20;99.90;;;;;;5029654;28;20226;-84
2021/12/01 01:40:34;;;;;;;2.95;2.00;;;4.20;99.90;;;;;;5020576;28;20721;-82
2021/12/01 01:43:01;;;;;;;3.38;1.52;;;4.20;99.90;;;;;;5040462;28;20241;-83
2021/12/01 01:45:28;;;;;;;2.35;2.15;;;4.20;99.90;;;;;;5024025;28;20212;-83
2021/12/01 01:48:00;;;;;;;1.17;1.15;;;4.20;99.90;;;;;;5020861;28;20237;-84
2021/12/01 01:50:35;;;;;;;1.63;1.52;;;4.30;99.90;;;;;;5035959;28;20208;-83
2021/12/01 01:53:06;;;;;;;2.40;2.30;;;4.30;99.90;;;;;;5039312;28;20626;-84
2021/12/01 01:55:33;;;;;;;1.70;1.70;;;4.40;99.90;;;;;;5026829;28;20207;-84
2021/12/01 01:58:00;;;;;;;2.00;1.90;;;4.40;99.90;;;;;;5039683;28;20230;-83
2021/12/01 02:00:28;;;;;;;1.77;1.67;;;4.50;99.90;;;;;;5039278;28;20580;-84
2021/12/01 02:02:57;;;;;;;2.42;2.22;;;4.40;99.90;;;;;;5040736;28;20205;-83
2021/12/01 02:05:23;;;;;;;2.22;2.10;;;4.40;99.90;;;;;;5034569;28;20208;-83
2021/12/01 02:07:52;;;;;;;1.65;1.55;;;4.40;99.90;;;;;;5023170;28;20241;-84
2021/12/01 02:10:20;;;;;;;1.50;1.50;;;4.50;99.90;;;;;;5029718;28;20206;-83
2021/12/01 02:12:48;;;;;;;2.25;2.15;;;4.50;99.90;;;;;;5042363;28;20214;-84
2021/12/01 02:15:16;;;;;;;1.70;1.60;;;4.60;99.90;;;;;;5028547;28;20229;-84
2021/12/01 02:17:43;;;;;;;2.22;2.03;;;4.60;99.90;;;;;;5021890;28;20226;-84
2021/12/01 02:20:20;;;;;;;1.85;1.75;;;4.50;99.90;;;;;;5033598;28;20213;-84
2021/12/01 02:22:48;;;;;;;1.80;1.70;;;4.50;99.90;;;;;;5041416;28;20205;-84
2021/12/01 02:25:15;;;;;;;2.13;1.92;;;4.60;99.90;;;;;;5040656;28;20195;-84
2021/12/01 02:27:42;;;;;;;2.38;2.28;;;4.70;99.90;;;;;;5069015;22;20504;-80
2021/12/01 02:30:09;;;;;;;2.85;2.22;;;4.70;99.90;;;;;;5056315;28;20202;-81
2021/12/01 02:32:36;;;;;;;1.70;1.60;;;4.60;99.90;;;;;;5057636;28;20296;-81
2021/12/01 02:35:03;;;;;;;1.70;1.60;;;4.60;99.90;;;;;;5056930;28;20222;-80
2021/12/01 02:37:32;;;;;;;2.22;2.03;;;4.60;99.90;;;;;;5057074;28;20229;-82
2021/12/01 02:39:59;;;;;;;1.70;1.60;;;4.60;99.90;;;;;;5056637;28;20209;-80
2021/12/01 02:42:25;;;;;;;1.98;1.88;;;4.60;99.90;;;;;;5056854;28;20231;-80
2021/12/01 02:44:52;;;;;;;1.67;1.58;;;4.60;99.90;;;;;;5057311;28;20591;-80
2021/12/01 02:47:19;;;;;;;1.63;1.52;;;4.60;99.90;;;;;;5056693;28;20657;-80
2021/12/01 02:49:46;;;;;;;1.63;1.50;;;4.70;99.90;;;;;;5056404;28;20579;-80
2021/12/01 02:52:13;;;;;;;1.30;1.30;;;4.70;99.90;;;;;;5056537;28;20215;-80
2021/12/01 02:54:41;;;;;;;1.60;1.50;;;4.70;99.90;;;;;;5056248;28;20228;-80
2021/12/01 02:57:08;;;;;;;1.40;1.30;;;4.80;99.90;;;;;;5056336;28;20202;-80
2021/12/01 02:59:35;;;;;;;3.90;3.75;;;4.70;99.90;;;;;;5056393;28;20606;-80
2021/12/01 03:02:02;;;;;;;1.40;1.40;;;4.80;99.90;;;;;;5055171;28;20209;-80
2021/12/01 03:04:30;;;;;;;2.60;1.60;;;4.80;99.90;;;;;;5055970;28;20495;-80
2021/12/01 03:06:58;;;;;;;2.00;1.90;;;4.80;99.90;;;;;;5055874;28;20200;-82
2021/12/01 03:09:26;;;;;;;1.52;1.40;;;4.70;99.90;;;;;;5056029;28;20280;-80
2021/12/01 03:11:54;;;;;;;2.15;1.95;;;4.60;99.90;;;;;;5056234;28;20229;-81
2021/12/01 03:14:21;;;;;;;1.63;1.55;;;4.80;99.90;;;;;;5055978;28;20214;-81
2021/12/01 03:16:50;;;;;;;0.98;0.98;;;4.80;99.90;;;;;;5055781;28;20209;-80
2021/12/01 03:19:17;;;;;;;1.50;1.27;;;4.70;99.90;;;;;;5055253;28;20229;-80
2021/12/01 03:21:45;;;;;;;1.50;1.40;;;4.80;99.90;;;;;;5055109;28;20207;-81
2021/12/01 03:24:12;;;;;;;1.23;1.17;;;4.80;99.90;;;;;;5055568;28;20202;-81
2021/12/01 03:26:40;;;;;;;1.70;1.60;;;4.80;99.90;;;;;;5055846;28;20232;-80
2021/12/01 03:29:11;;;;;;;1.90;1.80;;;4.80;99.90;;;;;;5055162;28;20226;-79
2021/12/01 03:31:38;;;;;;;1.30;1.30;;;4.80;99.90;;;;;;5054703;28;20213;-79
2021/12/01 03:34:06;;;;;;;1.38;1.27;;;4.80;99.90;;;;;;5054924;28;20221;-78
2021/12/01 03:36:33;;;;;;;2.28;1.35;;;4.90;99.90;;;;;;5055358;28;20206;-80
2021/12/01 03:38:59;;;;;;;1.20;1.13;;;5.00;99.90;;;;;;5055100;28;20230;-80
2021/12/01 03:41:26;;;;;;;1.65;1.55;;;5.00;99.90;;;;;;5055231;28;20201;-80
2021/12/01 03:43:53;;;;;;;1.30;1.25;;;4.90;99.90;;;;;;5054807;28;20575;-80
2021/12/01 03:46:23;;;;;;;1.40;1.30;;;4.80;99.90;;;;;;5054812;28;20219;-80
2021/12/01 03:48:50;;;;;;;2.15;1.95;;;4.90;99.90;;;;;;5054793;28;20225;-82
2021/12/01 03:51:16;;;;;;;2.15;1.98;;;4.90;99.90;;;;;;5054475;28;20204;-80
2021/12/01 03:53:43;;;;;;;2.47;1.80;;;5.00;99.90;;;;;;5055006;28;20206;-80
2021/12/01 03:56:10;;;;;;;1.45;1.10;;;5.00;99.90;;;;;;5054533;28;20206;-82
2021/12/01 03:58:37;;;;;;;1.60;1.50;;;5.00;99.90;;;;;;5055183;28;20707;-80
2021/12/01 04:01:04;;;;;;;1.40;1.30;;;5.00;99.90;;;;;;5054625;28;20599;-80
2021/12/01 04:03:32;;;;;;;1.50;1.40;;;5.00;99.90;;;;;;5054375;28;20209;-80
2021/12/01 04:05:58;;;;;;;1.55;1.45;;;5.10;99.90;;;;;;5054183;28;20212;-81
2021/12/01 04:08:25;;;;;;;1.40;1.30;;;5.20;99.90;;;;;;5054629;28;20597;-80
2021/12/01 04:10:52;;;;;;;1.65;1.55;;;5.20;99.90;;;;;;5054497;28;20206;-80
2021/12/01 04:13:19;;;;;;;1.98;1.60;;;5.20;99.90;;;;;;5054317;28;20221;-80
2021/12/01 04:15:45;;;;;;;1.60;1.50;;;5.30;99.90;;;;;;5054267;28;20225;-80
2021/12/01 04:18:12;;;;;;;1.67;1.58;;;5.40;99.90;;;;;;5054427;28;20232;-80
2021/12/01 04:20:40;;;;;;;3.05;1.70;;;5.40;99.90;;;;;;5053966;28;20205;-80
2021/12/01 04:23:07;;;;;;;1.40;1.40;;;5.40;99.90;;;;;;5054654;28;20212;-81
2021/12/01 04:25:35;;;;;;;2.03;1.75;;;5.40;99.90;;;;;;5053436;28;20198;-80
2021/12/01 04:28:02;;;;;;;4.55;3.40;;;5.50;99.90;;;;;;5054192;28;20272;-80
2021/12/01 04:30:28;;;;;;;1.75;1.65;;;5.40;99.90;;;;;;5053915;28;20297;-80
2021/12/01 04:32:56;;;;;;;1.58;1.48;;;5.50;99.90;;;;;;5054755;28;20583;-80
2021/12/01 04:35:25;;;;;;;1.40;1.30;;;5.50;99.90;;;;;;5054267;28;20229;-81
2021/12/01 04:37:54;;;;;;;1.83;1.45;;;5.40;99.90;;;;;;5054380;28;20256;-80
2021/12/01 04:40:21;;;;;;;1.60;1.50;;;5.50;99.90;;;;;;5054065;28;20209;-80
2021/12/01 04:42:48;;;;;;;1.40;1.30;;;5.40;99.90;;;;;;5054411;28;20206;-81
2021/12/01 04:45:17;;;;;;;1.80;1.50;;;5.40;99.90;;;;;;5054224;28;20280;-83
2021/12/01 04:47:45;;;;;;;1.83;1.13;;;5.40;99.90;;;;;;5054152;28;20230;-80
2021/12/01 04:50:13;;;;;;;0.98;0.98;;;5.30;99.90;;;;;;5054260;28;20205;-80
2021/12/01 04:52:40;;;;;;;1.75;0.98;;;5.20;99.90;;;;;;5053809;28;20208;-80
2021/12/01 04:55:10;;;;;;;1.55;1.45;;;5.20;99.90;;;;;;5054321;28;20221;-80
2021/12/01 04:57:39;;;;;;;1.50;1.40;;;5.30;99.90;;;;;;5054779;28;20233;-80
2021/12/01 05:00:08;;;;;;;1.65;1.55;;;5.40;99.90;;;;;;5054368;28;20260;-81
2021/12/01 05:02:35;;;;;;;0.70;0.70;;;5.40;99.90;;;;;;5055385;28;20216;-80
2021/12/01 05:05:01;;;;;;;0.90;0.90;;;5.50;99.90;;;;;;5054792;28;20206;-80
2021/12/01 05:07:28;;;;;;;1.10;1.10;;;5.40;99.90;;;;;;5055422;28;20225;-81
2021/12/01 05:09:56;;;;;;;1.15;0.98;;;5.40;99.90;;;;;;5055113;28;20210;-81
2021/12/01 05:12:24;;;;;;;1.65;1.02;;;5.50;99.90;;;;;;5055113;28;20201;-80
2021/12/01 05:14:51;;;;;;;0.60;0.60;;;5.60;99.90;;;;;;5055169;28;20235;-80
2021/12/01 05:17:20;;;;;;;0.60;0.60;;;5.50;99.90;;;;;;5055741;28;20229;-83
2021/12/01 05:19:46;;;;;;;0.82;0.82;;;5.50;99.90;;;;;;5055718;28;20205;-81
2021/12/01 05:22:13;;;;;;;1.17;0.80;;;5.60;99.90;;;;;;5055125;28;20228;-81
2021/12/01 05:24:40;;;;;;;0.82;0.82;;;5.50;99.90;;;;;;5055206;28;20198;-82
2021/12/01 05:27:07;;;;;;;0.60;0.50;;;5.60;99.90;;;;;;5055037;28;20217;-81
2021/12/01 05:29:36;;;;;;;3.30;1.40;;;5.60;99.90;;;;;;5055789;28;20569;-81
2021/12/01 05:32:03;;;;;;;0.77;0.77;;;5.60;99.90;;;;;;5055296;28;20210;-82
2021/12/01 05:34:30;;;;;;;0.75;0.55;;;5.60;99.90;;;;;;5055769;28;20244;-81
2021/12/01 05:37:00;;;;;;;0.65;0.65;;;5.70;99.90;;;;;;5056997;28;20217;-82
2021/12/01 05:39:27;;;;;;;0.68;0.68;;;5.80;99.90;;;;;;5059136;28;20205;-82
2021/12/01 05:41:54;;;;;;;0.73;0.70;;;5.70;99.90;;;;;;5059263;28;20551;-81
2021/12/01 05:44:21;;;;;;;0.70;0.70;;;5.80;99.90;;;;;;5059674;28;20205;-83
2021/12/01 05:46:49;;;;;;;0.70;0.70;;;5.70;99.90;;;;;;5059364;28;20582;-81
2021/12/01 05:49:16;;;;;;;0.60;0.60;;;5.70;99.90;;;;;;5059184;28;20221;-81
2021/12/01 05:51:43;;;;;;;1.02;1.02;;;5.80;99.90;;;;;;5059163;28;20212;-82
2021/12/01 05:54:10;;;;;;;0.88;0.70;;;5.80;99.90;;;;;;5060865;28;20212;-80
2021/12/01 05:56:37;;;;;;;1.13;0.70;;;5.80;99.90;;;;;;5061636;28;20215;-81
2021/12/01 05:59:05;;;;;;;0.82;0.82;;;5.90;99.90;;;;;;5061443;28;20218;-81
2021/12/01 06:01:31;;;;;;;0.50;0.50;;;5.90;99.90;;;;;;5060264;28;20206;-80
2021/12/01 06:04:00;;;;;;;0.70;0.70;;;5.80;99.90;;;;;;5061023;28;20209;-81
2021/12/01 06:06:26;;;;;;;0.60;0.60;;;5.90;99.90;;;;;;5059241;28;20693;-81
2021/12/01 06:08:53;;;;;;;0.70;0.70;;;6.00;99.90;;;;;;5058930;28;20228;-82
2021/12/01 06:11:21;;;;;;;1.02;0.80;;;5.90;99.90;;;;;;5059077;28;20224;-81
2021/12/01 06:13:51;;;;;;;0.85;0.60;;;6.00;99.90;;;;;;5059760;28;20584;-80
2021/12/01 06:16:20;;;;;;;0.40;0.40;;;5.90;99.90;;;;;;5059606;28;20229;-81
2021/12/01 06:18:46;;;;;;;0.60;0.57;;;6.00;99.90;;;;;;5060129;28;20259;-81
2021/12/01 06:21:15;;;;;;;0.80;0.75;;;6.00;99.90;;;;;;5060375;28;20209;-81
2021/12/01 06:23:41;;;;;;;0.85;0.63;;;6.00;99.90;;;;;;5059194;28;20205;-82
2021/12/01 06:26:08;;;;;;;0.50;0.50;;;6.00;99.90;;;;;;5060674;28;20206;-81
2021/12/01 06:28:35;;;;;;;0.70;0.70;;;6.00;99.90;;;;;;5059793;28;20229;-81
2021/12/01 06:31:02;;;;;;;1.52;1.15;;;6.00;99.90;;;;;;5060225;28;20209;-83
2021/12/01 06:33:28;;;;;;;1.85;1.02;;;6.10;99.90;;;;;;5060281;28;20209;-81
2021/12/01 06:35:55;;;;;;;0.60;0.60;;;6.00;99.90;;;;;;5060591;28;20229;-81
2021/12/01 06:38:25;;;;;;;0.60;0.60;;;6.00;99.90;;;;;;5060079;28;20231;-81
2021/12/01 06:40:52;;;;;;;0.73;0.73;;;6.00;99.90;;;;;;5061205;28;20579;-81
2021/12/01 06:43:19;;;;;;;0.60;0.55;;;6.00;99.90;;;;;;5060963;28;20206;-81
2021/12/01 06:45:46;;;;;;;0.50;0.50;;;6.00;99.90;;;;;;5063302;28;20249;-81
2021/12/01 06:48:13;;;;;;;0.90;0.90;;;6.00;99.90;;;;;;5062639;28;20584;-81
2021/12/01 06:50:40;;;;;;;0.40;0.40;;;6.00;99.90;;;;;;5062635;28;20209;-81
2021/12/01 06:53:07;;;;;;;1.20;0.82;;;6.00;99.90;;;;;;5061855;28;20194;-81
2021/12/01 06:55:36;;;;;;;1.08;0.80;;;6.10;99.90;;;;;;5061218;28;20237;-81
2021/12/01 06:58:03;;;;;;;1.50;1.00;;;6.10;99.90;;;;;;5060081;28;20686;-81
2021/12/01 07:00:30;;;;;;;0.82;0.73;;;6.10;99.90;;;;;;5060940;28;20733;-82
2021/12/01 07:02:58;;;;;;;0.85;0.63;;;6.30;99.90;;;;;;5058473;28;20228;-82
2021/12/01 07:05:25;;;;;;;0.95;0.70;;;6.40;99.90;;;;;;5059179;28;20285;-83
2021/12/01 07:07:52;;;;;;;0.63;0.63;;;6.40;99.90;;;;;;5058733;28;20221;-82
2021/12/01 07:10:20;;;;;;;0.88;0.70;;;6.40;99.90;;;;;;5058689;28;20197;-82
2021/12/01 07:12:48;;;;;;;0.80;0.80;;;6.50;99.90;;;;;;5057600;28;20204;-82
2021/12/01 07:15:15;;;;;;;0.77;0.77;;;6.50;99.90;;;;;;5057254;28;20217;-83
2021/12/01 07:17:43;;;;;;;0.93;0.65;;;6.50;99.90;;;;;;5057236;28;20232;-81
2021/12/01 07:20:11;;;;;;;0.45;0.45;;;6.60;99.90;;;;;;5057486;28;20206;-81
2021/12/01 07:22:38;;;;;;;0.68;0.60;;;6.70;99.90;;;;;;5061300;28;20214;-82
2021/12/01 07:25:06;;;;;;;0.70;0.70;;;6.80;99.90;;;;;;5060950;28;20698;-80
2021/12/01 07:27:33;;;;;;;0.52;0.52;;;6.80;99.90;;;;;;5055493;28;20727;-79
2021/12/01 07:30:01;;;;;;;0.75;0.75;;;6.90;99.90;;;;;;5054780;28;20201;-79
2021/12/01 07:32:28;;;;;;;1.65;0.70;;;6.90;99.90;;;;;;5054931;28;20213;-79
2021/12/01 07:34:56;;;;;;;1.30;1.20;;;7.00;99.90;;;;;;5054909;28;20205;-79
2021/12/01 07:37:23;;;;;;;0.63;0.63;;;7.10;99.90;;;;;;5054954;28;20226;-79
2021/12/01 07:39:50;;;;;;;0.60;0.60;;;7.10;99.90;;;;;;5054733;28;20205;-78
2021/12/01 07:42:16;;;;;;;0.40;0.40;;;7.00;99.90;;;;;;5054498;28;20205;-79
2021/12/01 07:44:44;;;;;;;0.95;0.60;;;7.00;99.90;;;;;;5052842;28;20202;-80
2021/12/01 07:47:12;;;;;;;0.73;0.73;;;7.00;99.90;;;;;;5053519;28;20194;-81
2021/12/01 07:49:39;;;;;;;0.40;0.40;;;6.90;99.90;;;;;;5057599;28;20233;-82
2021/12/01 07:52:07;;;;;;;0.50;0.50;;;6.90;99.90;;;;;;5056149;28;20205;-81
2021/12/01 07:54:34;;;;;;;0.50;0.50;;;6.90;99.90;;;;;;5056674;28;20205;-81
2021/12/01 07:57:01;;;;;;;0.80;0.80;;;6.90;99.90;;;;;;5057289;28;20229;-81
2021/12/01 07:59:28;;;;;;;0.95;0.95;;;6.90;99.90;;;;;;5056858;28;20263;-81
2021/12/01 08:01:55;;;;;;;0.43;0.40;;;6.90;99.90;;;;;;5056035;28;20592;-81
2021/12/01 08:04:23;;;;;;;0.50;0.50;;;6.90;99.90;;;;;;5057192;28;20209;-81
2021/12/01 08:06:50;;;;;;;0.50;0.50;;;7.00;99.90;;;;;;5057316;28;20206;-80
2021/12/01 08:09:17;;;;;;;0.50;0.50;;;7.00;99.90;;;;;;5057269;28;20229;-81
2021/12/01 08:11:44;;;;;;;0.60;0.60;;;7.10;99.90;;;;;;5056604;28;20469;-80
2021/12/01 08:14:11;;;;;;;2.63;0.50;;;7.10;99.90;;;;;;5057760;28;20574;-81
2021/12/01 08:16:38;;;;;;;1.05;1.00;;;7.10;99.90;;;;;;5057469;28;20698;-81
2021/12/01 08:19:06;;;;;;;0.30;0.30;;;7.20;99.90;;;;;;5056263;28;20233;-81
2021/12/01 08:21:34;;;;;;;0.35;0.35;;;7.10;99.90;;;;;;5056628;28;20209;-81
2021/12/01 08:24:01;;;;;;;0.50;0.50;;;7.20;99.90;;;;;;5056233;28;20210;-80
2021/12/01 08:26:28;;;;;;;0.50;0.40;;;7.10;99.90;;;;;;5056650;28;20595;-81
2021/12/01 08:28:55;;;;;;;0.30;0.30;;;7.30;99.90;;;;;;5058665;28;20233;-81
2021/12/01 08:31:22;;;;;;;2.05;0.70;;;7.30;99.90;;;;;;5058863;28;20205;-82
2021/12/01 08:33:49;;;;;;;1.70;0.82;;;7.30;99.90;;;;;;5059183;28;20209;-81
2021/12/01 08:36:16;;;;;;;0.40;0.40;;;7.30;99.90;;;;;;5058765;28;20232;-82
2021/12/01 08:38:44;;;;;;;0.65;0.38;;;7.30;99.90;;;;;;5058640;28;20234;-82
2021/12/01 08:41:12;;;;;;;0.32;0.32;;;7.30;99.90;;;;;;5058940;28;20210;-82
2021/12/01 08:43:40;;;;;;;0.40;0.40;;;7.20;99.90;;;;;;5059048;28;20255;-82
2021/12/01 08:46:07;;;;;;;0.52;0.50;;;7.30;99.90;;;;;;5067079;28;20209;-82
2021/12/01 08:48:35;;;;;;;0.40;0.40;;;7.30;99.90;;;;;;5069256;28;20229;-81
2021/12/01 08:51:03;;;;;;;0.40;0.40;;;7.30;99.90;;;;;;5068837;28;20210;-82
2021/12/01 08:53:30;;;;;;;0.55;0.40;;;7.40;99.90;;;;;;5064886;28;20206;-82
2021/12/01 08:55:59;;;;;;;1.67;0.60;;;7.50;99.90;;;;;;5058220;28;20711;-82
2021/12/01 08:58:26;;;;;;;2.42;0.75;;;7.50;99.90;;;;;;5058579;28;20225;-82
2021/12/01 09:00:54;;;;;;;1.50;0.80;;;7.60;99.90;;;;;;5058071;28;20232;-82
2021/12/01 09:03:21;;;;;;;1.35;1.00;;;7.70;99.90;;;;;;5058955;28;20793;-82
2021/12/01 09:05:48;;;;;;;0.40;0.40;;;7.70;99.90;;;;;;5059149;28;20642;-82
2021/12/01 09:08:17;;;;;;;0.55;0.50;;;7.80;99.90;;;;;;5058960;28;20229;-83
2021/12/01 09:10:44;;;;;;;0.50;0.50;;;7.70;99.90;;;;;;5058422;28;20595;-82
2021/12/01 09:13:13;;;;;;;0.40;0.40;;;7.90;99.90;;;;;;5058673;28;20209;-82
2021/12/01 09:15:41;;;;;;;1.30;0.32;;;8.00;99.90;;;;;;5058611;28;20225;-82
2021/12/01 09:18:07;;;;;;;1.55;0.52;;;8.00;99.90;;;;;;5058673;28;20235;-82
2021/12/01 09:20:34;;;;;;;0.40;0.40;;;8.10;99.90;;;;;;5058339;28;20220;-82
2021/12/01 09:23:03;;;;;;;0.32;0.32;;;8.20;99.90;;;;;;5058958;28;20202;-82
2021/12/01 09:25:29;;;;;;;0.40;0.40;;;8.30;99.90;;;;;;5058768;28;20276;-82
2021/12/01 09:27:56;;;;;;;0.40;0.40;;;8.30;99.90;;;;;;5058604;28;20248;-82
2021/12/01 09:30:24;;;;;;;0.88;0.40;;;8.30;99.90;;;;;;5058171;28;20213;-82
2021/12/01 09:32:51;;;;;;;1.70;0.50;;;8.40;99.90;;;;;;5058015;28;20225;-82
2021/12/01 09:35:18;;;;;;;0.40;0.30;;;8.40;99.90;;;;;;5057817;28;20252;-81
2021/12/01 09:37:45;;;;;;;0.70;0.50;;;8.40;99.90;;;;;;5056135;28;20242;-81
2021/12/01 09:40:17;;;;;;;0.30;0.30;;;8.40;99.90;;;;;;5053968;28;20675;-80
2021/12/01 09:42:46;;;;;;;0.40;0.40;;;8.50;99.90;;;;;;5058112;28;20705;-81
2021/12/01 09:45:14;;;;;;;0.80;0.47;;;8.30;99.90;;;;;;5069327;28;20214;-81
2021/12/01 09:47:42;;;;;;;3.80;0.57;;;8.40;99.90;;;;;;5070543;28;20234;-81
2021/12/01 09:50:10;;;;;;;0.43;0.43;;;8.40;99.90;;;;;;5069836;28;20210;-80
2021/12/01 09:52:37;;;;;;;0.40;0.32;;;8.40;99.90;;;;;;5069535;28;20206;-81
2021/12/01 09:55:06;;;;;;;0.93;0.80;;;8.50;99.90;;;;;;5069459;28;20209;-81
2021/12/01 09:57:33;;;;;;;0.50;0.50;;;8.50;99.90;;;;;;5070355;28;20234;-81
2021/12/01 10:00:00;;;;;;;0.40;0.40;;;8.60;99.90;;;;;;5063080;28;20206;-82
2021/12/01 10:02:27;;;;;;;0.63;0.60;;;8.70;99.90;;;;;;5058691;28;20210;-82
2021/12/01 10:04:55;;;;;;;0.40;0.40;;;8.70;99.90;;;;;;5058578;28;20234;-82
2021/12/01 10:07:26;;;;;;;0.73;0.40;;;8.70;99.90;;;;;;5058321;28;20221;-82
2021/12/01 10:09:57;;;;;;;0.70;0.60;;;8.60;99.90;;;;;;5058253;28;20255;-82
2021/12/01 10:12:24;;;;;;;0.30;0.30;;;8.70;99.90;;;;;;5058386;28;20213;-81
2021/12/01 10:14:52;;;;;;;0.40;0.40;;;8.70;99.90;;;;;;5058170;28;20240;-81
2021/12/01 10:17:33;;;;;;;0.57;0.50;;;8.60;99.90;;;;;;5058005;28;20236;-82
2021/12/01 10:20:13;;;;;;;0.50;0.50;;;8.70;99.90;;;;;;5057733;28;20210;-81
2021/12/01 10:22:40;;;;;;;1.65;0.50;;;8.60;99.90;;;;;;5058786;28;20236;-81
2021/12/01 10:25:28;;;;;;;1.30;0.65;;;8.70;99.90;;;;;;5061346;28;20206;-82
2021/12/01 10:27:54;;;;;;;0.40;0.40;;;8.80;99.90;;;;;;5061606;28;20230;-81
2021/12/01 10:30:36;;;;;;;0.60;0.60;;;8.80;99.90;;;;;;5060816;28;20675;-82
2021/12/01 10:33:08;;;;;;;0.50;0.43;;;8.90;99.90;;;;;;5062248;28;20299;-82
2021/12/01 10:35:38;;;;;;;0.70;0.60;;;9.00;99.90;;;;;;5060989;28;20206;-82
2021/12/01 10:38:06;;;;;;;0.75;0.50;;;9.00;99.90;;;;;;5061520;28;20222;-82
2021/12/01 10:40:34;;;;;;;0.40;0.40;;;9.10;99.90;;;;;;5061031;28;20245;-81
2021/12/01 10:43:02;;;;;;;1.23;0.50;;;8.90;99.90;;;;;;5061231;28;20202;-81
2021/12/01 10:45:31;;;;;;;0.60;0.60;;;9.00;99.90;;;;;;5060948;28;20210;-81
2021/12/01 10:47:59;;;;;;;2.35;0.80;;;9.10;99.90;;;;;;5061159;28;20232;-83
2021/12/01 10:50:29;;;;;;;0.40;0.30;;;9.10;99.90;;;;;;5060986;28;20214;-83
2021/12/01 10:53:08;;;;;;;0.50;0.50;;;9.10;99.90;;;;;;5067010;28;20198;-83
2021/12/01 10:55:42;;;;;;;0.63;0.60;;;9.30;99.90;;;;;;5069029;28;20206;-83
2021/12/01 10:58:09;;;;;;;0.45;0.45;;;9.40;99.90;;;;;;5067284;28;20241;-83
2021/12/01 11:00:43;;;;;;;0.40;0.32;;;9.50;99.90;;;;;;5069910;28;20203;-83
2021/12/01 11:03:12;;;;;;;10.85;0.90;;;9.50;99.90;;;;;;5072347;28;20209;-84
2021/12/01 11:05:41;;;;;;;0.50;0.38;;;9.50;99.90;;;;;;5071116;28;20757;-83
2021/12/01 11:08:15;;;;;;;0.40;0.40;;;9.40;99.90;;;;;;5064062;28;20227;-83
2021/12/01 11:10:42;;;;;;;1.17;0.55;;;9.40;99.90;;;;;;5059886;28;20220;-83
2021/12/01 11:13:09;;;;;;;0.60;0.40;;;9.40;99.90;;;;;;5059940;28;20213;-81
2021/12/01 11:15:39;;;;;;;0.43;0.40;;;9.50;99.90;;;;;;5062399;28;20834;-83
2021/12/01 11:18:09;;;;;;;0.30;0.30;;;9.70;99.90;;;;;;5060856;28;20703;-83
2021/12/01 11:20:40;;;;;;;0.50;0.32;;;10.00;99.90;;;;;;5060325;28;20215;-84
2021/12/01 11:23:14;;;;;;;0.30;0.30;;;10.30;99.90;;;;;;5060225;28;20224;-83
2021/12/01 11:25:43;;;;;;;0.30;0.30;;;10.50;99.90;;;;;;5060055;28;20672;-81
2021/12/01 11:28:13;;;;;;;0.40;0.40;;;10.70;99.90;;;;;;5060287;28;20478;-81
2021/12/01 11:30:41;;;;;;;0.40;0.40;;;10.80;99.90;;;;;;5060923;28;20220;-82
2021/12/01 11:33:11;;;;;;;0.50;0.50;;;11.00;99.90;;;;;;5060027;28;20295;-82
2021/12/01 11:35:38;;;;;;;0.50;0.40;;;10.80;99.90;;;;;;5059926;28;20206;-81
2021/12/01 11:38:06;;;;;;;1.03;0.50;;;10.80;99.90;;;;;;5059761;28;20495;-81
2021/12/01 11:40:34;;;;;;;1.00;0.40;;;10.70;99.90;;;;;;5059825;28;20474;-81
2021/12/01 11:43:01;;;;;;;0.70;0.52;;;10.50;99.90;;;;;;5060319;28;20210;-81
2021/12/01 11:45:28;;;;;;;0.40;0.40;;;10.60;99.90;;;;;;5060292;28;20203;-82
2021/12/01 11:47:55;;;;;;;0.60;0.50;;;10.50;99.90;;;;;;5059336;28;20226;-81
2021/12/01 11:50:30;;;;;;;0.85;0.50;;;10.60;99.90;;;;;;5059524;28;20445;-81
2021/12/01 11:53:15;;;;;;;0.40;0.30;;;10.70;99.90;;;;;;5059287;28;20301;-82
2021/12/01 11:55:57;;;;;;;1.95;0.52;;;10.70;99.90;;;;;;5060376;28;20668;-82
2021/12/01 11:58:54;;;;;;;2.15;0.50;;;10.50;99.90;;;;;;5059504;28;20235;-81
2021/12/01 12:01:39;;;;;;;0.50;0.50;;;10.40;99.90;;;;;;5057511;28;20214;-81
2021/12/01 12:04:20;;;;;;;0.80;0.80;;;10.20;99.90;;;;;;5056329;28;20218;-81
2021/12/01 12:06:49;;;;;;;0.65;0.65;;;10.10;99.90;;;;;;5058742;28;20208;-81
2021/12/01 12:09:18;;;;;;;0.77;0.65;;;10.00;99.90;;;;;;5060009;28;20226;-80
2021/12/01 12:11:48;;;;;;;0.70;0.70;;;10.10;99.90;;;;;;5060813;28;20291;-81
2021/12/01 12:14:17;;;;;;;0.40;0.40;;;10.10;99.90;;;;;;5059436;28;20271;-81
2021/12/01 12:17:07;;;;;;;0.50;0.50;;;10.20;99.90;;;;;;5059059;28;20243;-81
2021/12/01 12:19:55;;;;;;;0.77;0.77;;;10.20;99.90;;;;;;5059243;28;20237;-80
2021/12/01 12:22:29;;;;;;;0.88;0.80;;;10.20;99.90;;;;;;5058727;28;20746;-81
2021/12/01 12:24:56;;;;;;;0.80;0.80;;;10.20;99.90;;;;;;5058699;28;20233;-80
2021/12/01 12:27:40;;;;;;;0.77;0.77;;;10.10;99.90;;;;;;5058883;28;20226;-81
2021/12/01 12:30:14;;;;;;;0.73;0.73;;;9.80;99.90;;;;;;5058441;28;20209;-81
2021/12/01 12:32:43;;;;;;;0.75;0.75;;;9.70;99.90;;;;;;5058747;28;20210;-81
2021/12/01 12:35:12;;;;;;;4.38;1.45;;;9.50;99.90;;;;;;5058675;28;20209;-81
2021/12/01 12:37:39;;;;;;;1.20;0.70;;;9.40;99.90;;;;;;5058548;28;20233;-80
2021/12/01 12:40:11;;;;;;;0.95;0.80;;;9.30;99.90;;;;;;5057546;28;20209;-80
2021/12/01 12:43:06;;;;;;;0.90;0.90;;;9.30;99.90;;;;;;5057905;28;20618;-81
2021/12/01 12:45:33;;;;;;;0.80;0.80;;;9.20;99.90;;;;;;5058412;28;20210;-80
2021/12/01 12:48:00;;;;;;;1.42;0.85;;;9.20;99.90;;;;;;5055828;28;20233;-81
2021/12/01 12:50:27;;;;;;;2.25;0.98;;;9.10;99.90;;;;;;5055909;28;20287;-80
2021/12/01 12:52:55;;;;;;;0.75;0.63;;;9.10;99.90;;;;;;5055248;28;20216;-81
2021/12/01 12:55:40;;;;;;;1.40;1.30;;;8.90;99.90;;;;;;5057087;28;20205;-81
2021/12/01 12:58:10;;;;;;;0.93;0.90;;;8.80;99.90;;;;;;5056390;28;20233;-80
2021/12/01 13:00:45;;;;;;;1.30;1.20;;;8.80;99.90;;;;;;5057604;28;20288;-81
2021/12/01 13:03:34;;;;;;;2.38;1.00;;;8.70;99.90;;;;;;5058109;28;20220;-84
2021/12/01 13:06:02;;;;;;;1.25;1.20;;;8.80;99.90;;;;;;5053951;28;20631;-83
2021/12/01 13:08:31;;;;;;;0.75;0.70;;;8.70;99.90;;;;;;5058478;28;20244;-83